Time;durP1;ratioP1;P1;durP2;ratioP2;P2;SDS_P1;SDS_P2;PMS_P1;PMS_P2;Temp;Humidity;BMP_temperature;BMP_pressure;BME280_temperature;BME280_humidity;BME280_pressure;Samples;Min_cycle;Max_cycle;Signal;HPM_P1;HPM_P2
2023/03/19 00:00:41;;;;;;;6.47;4.80;;;10.30;99.90;;;;;;4853981;29;20231;-59
2023/03/19 00:03:09;;;;;;;6.70;4.93;;;10.30;99.90;;;;;;4858049;29;20572;-59
2023/03/19 00:05:37;;;;;;;5.33;4.87;;;10.30;99.90;;;;;;4857745;29;20250;-59
2023/03/19 00:08:06;;;;;;;6.37;5.20;;;10.30;99.90;;;;;;4854658;29;20280;-59
2023/03/19 00:10:38;;;;;;;6.10;4.87;;;10.30;99.90;;;;;;4851475;29;20599;-59
2023/03/19 00:13:07;;;;;;;7.87;5.60;;;10.20;99.90;;;;;;4856238;29;20195;-59
2023/03/19 00:15:35;;;;;;;5.47;4.97;;;10.20;99.90;;;;;;4854881;29;20268;-59
2023/03/19 00:18:05;;;;;;;6.47;4.90;;;10.20;99.90;;;;;;4853016;29;20255;-59
2023/03/19 00:20:34;;;;;;;7.40;5.20;;;10.20;99.90;;;;;;4852769;29;20231;-59
2023/03/19 00:23:06;;;;;;;5.93;5.20;;;10.10;99.90;;;;;;4853974;29;20231;-59
2023/03/19 00:25:34;;;;;;;5.87;5.13;;;10.10;99.90;;;;;;4854587;29;20191;-59
2023/03/19 00:28:02;;;;;;;6.53;5.73;;;10.00;99.90;;;;;;4856650;29;20549;-59
2023/03/19 00:30:31;;;;;;;6.33;5.47;;;10.00;99.90;;;;;;4853235;29;20239;-59
2023/03/19 00:33:00;;;;;;;5.87;5.37;;;10.00;99.90;;;;;;4852019;29;20797;-59
2023/03/19 00:35:29;;;;;;;8.67;6.10;;;10.00;99.90;;;;;;4850393;29;20238;-59
2023/03/19 00:37:58;;;;;;;8.63;5.57;;;10.10;99.90;;;;;;4853083;29;20330;-59
2023/03/19 00:40:26;;;;;;;9.53;6.20;;;10.20;99.90;;;;;;4853442;29;20212;-58
2023/03/19 00:42:54;;;;;;;6.83;6.10;;;10.30;99.90;;;;;;4850901;29;20199;-59
2023/03/19 00:45:22;;;;;;;6.20;5.60;;;10.30;99.90;;;;;;4853253;29;20239;-59
2023/03/19 00:47:51;;;;;;;6.57;5.70;;;10.30;99.90;;;;;;4851454;29;20219;-59
2023/03/19 00:50:19;;;;;;;8.43;6.50;;;10.40;99.90;;;;;;4853037;29;20276;-59
2023/03/19 00:52:49;;;;;;;6.37;5.87;;;10.40;99.90;;;;;;4842253;29;20280;-59
2023/03/19 00:55:17;;;;;;;6.33;5.70;;;10.40;99.90;;;;;;4853044;29;20204;-59
2023/03/19 00:57:45;;;;;;;6.70;6.00;;;10.50;99.90;;;;;;4854510;29;20282;-59
2023/03/19 01:00:14;;;;;;;6.87;5.80;;;10.40;99.90;;;;;;4853617;29;20239;-59
2023/03/19 01:02:46;;;;;;;6.87;6.17;;;10.40;99.90;;;;;;4850117;29;20276;-59
2023/03/19 01:05:14;;;;;;;8.93;6.60;;;10.40;99.90;;;;;;4853537;29;20231;-59
2023/03/19 01:07:43;;;;;;;8.20;6.40;;;10.40;99.90;;;;;;4852283;29;20207;-59
2023/03/19 01:10:13;;;;;;;7.63;6.37;;;10.40;99.90;;;;;;4848690;29;20236;-60
2023/03/19 01:12:41;;;;;;;10.60;6.10;;;10.40;99.90;;;;;;4851684;29;21186;-59
2023/03/19 01:15:10;;;;;;;8.40;6.23;;;10.50;99.90;;;;;;4856792;29;20767;-59
2023/03/19 01:17:39;;;;;;;7.60;6.80;;;10.50;99.90;;;;;;4851805;29;20253;-59
2023/03/19 01:20:11;;;;;;;9.10;6.60;;;10.50;99.90;;;;;;4853534;29;20276;-59
2023/03/19 01:22:41;;;;;;;8.43;7.17;;;10.50;99.90;;;;;;4851530;29;20235;-59
2023/03/19 01:25:11;;;;;;;9.23;6.70;;;10.40;99.90;;;;;;4851673;29;20220;-59
2023/03/19 01:27:41;;;;;;;8.60;7.00;;;10.40;99.90;;;;;;4853692;29;20234;-60
2023/03/19 01:30:10;;;;;;;8.60;7.00;;;10.40;99.90;;;;;;4854517;29;20252;-59
2023/03/19 01:32:39;;;;;;;8.70;7.10;;;10.30;99.90;;;;;;4850612;29;20254;-59
2023/03/19 01:35:08;;;;;;;11.63;7.40;;;10.30;99.90;;;;;;4850601;29;20255;-59
2023/03/19 01:37:37;;;;;;;9.37;7.00;;;10.20;99.90;;;;;;4851638;29;20256;-59
2023/03/19 01:40:08;;;;;;;10.30;7.47;;;10.20;99.90;;;;;;4855565;29;20211;-59
2023/03/19 01:42:56;;;;;;;9.40;7.87;;;10.10;99.90;;;;;;4853282;29;20223;-59
2023/03/19 01:45:31;;;;;;;8.10;7.10;;;10.00;99.90;;;;;;4851409;29;20251;-59
2023/03/19 01:48:00;;;;;;;8.87;7.50;;;9.90;99.90;;;;;;4831431;29;20238;-60
2023/03/19 01:50:37;;;;;;;9.47;7.37;;;9.80;99.90;;;;;;4849786;29;20231;-59
2023/03/19 01:53:07;;;;;;;12.00;8.57;;;9.60;99.90;;;;;;4850992;29;20634;-59
2023/03/19 01:55:40;;;;;;;10.97;7.80;;;9.60;99.90;;;;;;4854697;29;20290;-59
2023/03/19 01:58:10;;;;;;;11.53;7.73;;;9.50;99.90;;;;;;4855495;29;20264;-60
2023/03/19 02:00:39;;;;;;;11.37;8.30;;;9.40;99.90;;;;;;4851758;29;20620;-60
2023/03/19 02:03:07;;;;;;;9.10;8.20;;;9.30;99.90;;;;;;4851408;29;20290;-59
2023/03/19 02:05:38;;;;;;;10.33;8.80;;;9.30;99.90;;;;;;4859584;29;20227;-59
2023/03/19 02:08:11;;;;;;;12.57;9.17;;;9.30;99.90;;;;;;4860473;29;20227;-59
2023/03/19 02:10:40;;;;;;;15.23;9.67;;;9.20;99.90;;;;;;4856439;29;20199;-60
2023/03/19 02:13:11;;;;;;;10.50;9.20;;;9.10;99.90;;;;;;4857743;29;20235;-59
2023/03/19 02:15:40;;;;;;;15.70;9.93;;;9.10;99.90;;;;;;4853889;29;20223;-59
2023/03/19 02:18:09;;;;;;;16.60;9.57;;;9.10;99.90;;;;;;4856548;29;20271;-59
2023/03/19 02:20:44;;;;;;;13.40;9.50;;;9.20;99.90;;;;;;4857229;29;20230;-59
2023/03/19 02:23:20;;;;;;;13.67;8.80;;;9.20;99.90;;;;;;4857189;29;20618;-59
2023/03/19 02:26:00;;;;;;;12.10;8.47;;;9.10;99.90;;;;;;4862130;29;20223;-59
2023/03/19 02:28:30;;;;;;;12.43;8.83;;;9.00;99.90;;;;;;4858866;29;20247;-58
2023/03/19 02:30:59;;;;;;;11.73;8.83;;;8.90;99.90;;;;;;4857508;29;20219;-59
2023/03/19 02:33:27;;;;;;;11.50;8.90;;;8.90;99.90;;;;;;4853730;29;20231;-60
2023/03/19 02:35:57;;;;;;;15.07;9.27;;;8.80;99.90;;;;;;4857082;29;20230;-59
2023/03/19 02:38:27;;;;;;;13.70;9.63;;;8.90;99.90;;;;;;4854979;29;20227;-59
2023/03/19 02:41:00;;;;;;;12.63;9.47;;;8.90;99.90;;;;;;4857484;29;20231;-59
2023/03/19 02:43:29;;;;;;;13.13;9.10;;;8.80;99.90;;;;;;4855451;29;20213;-59
2023/03/19 02:45:58;;;;;;;10.67;8.57;;;8.80;99.90;;;;;;4857870;29;20211;-59
2023/03/19 02:48:26;;;;;;;12.83;8.87;;;8.70;99.90;;;;;;4854534;29;20234;-59
2023/03/19 02:50:55;;;;;;;10.10;8.20;;;8.70;99.90;;;;;;4855360;29;20235;-59
2023/03/19 02:53:23;;;;;;;12.27;7.93;;;8.60;99.90;;;;;;4857561;29;20616;-59
2023/03/19 02:55:52;;;;;;;11.83;7.30;;;8.50;99.90;;;;;;4855105;29;20216;-59
2023/03/19 02:58:21;;;;;;;8.77;7.33;;;8.50;99.90;;;;;;4857645;29;20246;-59
2023/03/19 03:00:50;;;;;;;12.40;7.33;;;8.40;99.90;;;;;;4854077;29;20301;-59
2023/03/19 03:03:19;;;;;;;8.80;6.90;;;8.30;99.90;;;;;;4853941;29;20227;-59
2023/03/19 03:05:48;;;;;;;9.97;6.87;;;8.30;99.90;;;;;;4856035;29;20272;-59
2023/03/19 03:08:17;;;;;;;7.47;6.77;;;8.30;99.90;;;;;;4855711;29;20303;-59
2023/03/19 03:10:45;;;;;;;8.93;6.13;;;8.30;99.90;;;;;;4850695;29;20238;-59
2023/03/19 03:13:13;;;;;;;7.03;5.67;;;8.30;99.90;;;;;;4853074;29;20231;-59
2023/03/19 03:15:43;;;;;;;7.13;6.40;;;8.20;99.90;;;;;;4851216;29;20280;-59
2023/03/19 03:18:11;;;;;;;8.90;6.13;;;8.20;99.90;;;;;;4853730;29;20214;-59
2023/03/19 03:20:39;;;;;;;8.60;6.00;;;8.10;99.90;;;;;;4851591;29;20295;-59
2023/03/19 03:23:08;;;;;;;9.20;5.50;;;8.00;99.90;;;;;;4809688;29;1408379;-59
2023/03/19 03:25:36;;;;;;;8.70;5.50;;;8.00;99.90;;;;;;4854340;29;20196;-59
2023/03/19 03:28:05;;;;;;;15.10;5.83;;;8.00;99.90;;;;;;4855093;29;20200;-59
2023/03/19 03:30:33;;;;;;;8.60;5.60;;;7.90;99.90;;;;;;4855192;29;20231;-59
2023/03/19 03:33:03;;;;;;;7.67;5.27;;;7.90;99.90;;;;;;4853555;29;20239;-59
2023/03/19 03:35:31;;;;;;;6.60;5.07;;;7.90;99.90;;;;;;4854246;29;20223;-59
2023/03/19 03:37:59;;;;;;;7.73;5.30;;;7.90;99.90;;;;;;4853391;29;20291;-59
2023/03/19 03:40:28;;;;;;;7.00;5.53;;;8.00;99.90;;;;;;4854496;29;20608;-59
2023/03/19 03:42:57;;;;;;;14.23;6.00;;;7.90;99.90;;;;;;4853524;29;20234;-59
2023/03/19 03:45:25;;;;;;;10.40;5.57;;;7.90;99.90;;;;;;4854621;29;20297;-59
2023/03/19 03:47:53;;;;;;;7.07;4.93;;;7.80;99.90;;;;;;4854369;29;20238;-59
2023/03/19 03:50:23;;;;;;;9.73;5.37;;;7.70;99.90;;;;;;4857350;29;20207;-59
2023/03/19 03:52:51;;;;;;;8.03;5.00;;;7.70;99.90;;;;;;4854133;29;20243;-59
2023/03/19 03:55:20;;;;;;;10.23;5.07;;;7.70;99.90;;;;;;4857942;29;20263;-60
2023/03/19 03:57:48;;;;;;;13.30;5.33;;;7.70;99.90;;;;;;4857141;29;20307;-59
2023/03/19 04:00:18;;;;;;;8.73;5.20;;;7.70;99.90;;;;;;4858458;29;20694;-59
2023/03/19 04:02:46;;;;;;;10.83;5.07;;;7.70;99.90;;;;;;4855219;29;20223;-59
2023/03/19 04:05:15;;;;;;;15.33;5.30;;;7.70;99.90;;;;;;4857071;29;20719;-59
2023/03/19 04:07:45;;;;;;;12.90;5.13;;;7.70;99.90;;;;;;4855364;29;20206;-59
2023/03/19 04:10:14;;;;;;;14.53;5.10;;;7.70;99.90;;;;;;4851081;29;20606;-59
2023/03/19 04:12:44;;;;;;;8.50;5.17;;;7.70;99.90;;;;;;4852958;29;20279;-59
2023/03/19 04:15:13;;;;;;;8.00;4.60;;;7.70;99.90;;;;;;4858210;29;20575;-59
2023/03/19 04:17:41;;;;;;;14.23;4.97;;;7.60;99.90;;;;;;4855280;29;20723;-59
2023/03/19 04:20:11;;;;;;;8.00;4.77;;;7.60;99.90;;;;;;4856649;29;20275;-59
2023/03/19 04:22:40;;;;;;;13.17;5.33;;;7.60;99.90;;;;;;4854101;29;20247;-59
2023/03/19 04:25:11;;;;;;;11.37;5.10;;;7.60;99.90;;;;;;4854504;29;20199;-59
2023/03/19 04:27:39;;;;;;;11.40;4.60;;;7.50;99.90;;;;;;4850922;29;20942;-59
2023/03/19 04:30:09;;;;;;;12.37;4.67;;;7.50;99.90;;;;;;4853233;29;20286;-59
2023/03/19 04:32:37;;;;;;;10.23;4.43;;;7.60;99.90;;;;;;4851798;29;21055;-59
2023/03/19 04:35:07;;;;;;;11.03;4.93;;;7.60;99.90;;;;;;4853240;29;20235;-59
2023/03/19 04:37:35;;;;;;;14.23;4.20;;;7.70;99.90;;;;;;4854367;29;20280;-59
2023/03/19 04:40:04;;;;;;;10.13;4.90;;;7.70;99.90;;;;;;4855927;29;20532;-59
2023/03/19 04:42:34;;;;;;;17.07;5.17;;;7.70;99.90;;;;;;4855653;29;20287;-59
2023/03/19 04:45:02;;;;;;;12.40;5.20;;;7.70;99.90;;;;;;4856578;29;20256;-59
2023/03/19 04:47:30;;;;;;;11.33;4.60;;;7.70;99.90;;;;;;4851936;29;20235;-60
2023/03/19 04:49:58;;;;;;;12.40;4.57;;;7.70;99.90;;;;;;4857898;29;20251;-59
2023/03/19 04:52:28;;;;;;;15.27;4.93;;;7.70;99.90;;;;;;4854163;29;20218;-59
2023/03/19 04:54:56;;;;;;;16.80;4.20;;;7.60;99.90;;;;;;4854982;29;21830;-59
2023/03/19 04:57:24;;;;;;;10.70;4.57;;;7.70;99.90;;;;;;4857389;29;20767;-59
2023/03/19 04:59:54;;;;;;;14.97;4.57;;;7.60;99.90;;;;;;4855077;29;20647;-59
2023/03/19 05:02:22;;;;;;;12.10;4.50;;;7.60;99.90;;;;;;4850995;29;20227;-59
2023/03/19 05:04:50;;;;;;;8.30;4.70;;;7.60;99.90;;;;;;4852675;29;20227;-60
2023/03/19 05:07:18;;;;;;;14.53;5.47;;;7.50;99.90;;;;;;4854929;29;20223;-59
2023/03/19 05:09:47;;;;;;;14.80;5.00;;;7.50;99.90;;;;;;4852967;29;20643;-59
2023/03/19 05:12:15;;;;;;;17.67;6.00;;;7.50;99.90;;;;;;4850276;29;20250;-59
2023/03/19 05:14:43;;;;;;;13.57;5.30;;;7.50;99.90;;;;;;4857802;29;20227;-59
2023/03/19 05:17:14;;;;;;;14.57;5.33;;;7.50;99.90;;;;;;4853540;29;20779;-59
2023/03/19 05:19:43;;;;;;;15.20;5.67;;;7.50;99.90;;;;;;4856513;29;20287;-59
2023/03/19 05:22:11;;;;;;;14.17;5.00;;;7.50;99.90;;;;;;4849497;29;20266;-59
2023/03/19 05:24:40;;;;;;;16.60;5.63;;;7.50;99.90;;;;;;4852968;29;20236;-59
2023/03/19 05:27:08;;;;;;;13.87;5.10;;;7.50;99.90;;;;;;4853080;29;20235;-59
2023/03/19 05:29:36;;;;;;;13.33;5.77;;;7.50;99.90;;;;;;4853999;29;20234;-59
2023/03/19 05:32:09;;;;;;;11.03;5.37;;;7.50;99.90;;;;;;4850112;29;20237;-59
2023/03/19 05:34:38;;;;;;;14.13;5.40;;;7.60;99.90;;;;;;4851547;29;20272;-59
2023/03/19 05:37:07;;;;;;;12.50;5.33;;;7.60;99.90;;;;;;4852860;29;20204;-59
2023/03/19 05:39:35;;;;;;;19.00;6.50;;;7.70;99.90;;;;;;4851577;29;20234;-59
2023/03/19 05:42:04;;;;;;;15.83;7.03;;;7.80;99.90;;;;;;4851753;29;20215;-59
2023/03/19 05:44:32;;;;;;;19.43;7.57;;;7.80;99.90;;;;;;4850441;29;20227;-59
2023/03/19 05:47:00;;;;;;;23.80;8.00;;;7.80;99.90;;;;;;4849396;29;20279;-59
2023/03/19 05:49:29;;;;;;;21.37;8.13;;;7.90;99.90;;;;;;4852362;29;20219;-58
2023/03/19 05:51:59;;;;;;;18.63;8.13;;;7.90;99.90;;;;;;4853816;29;20252;-59
2023/03/19 05:54:27;;;;;;;20.37;8.37;;;7.90;99.90;;;;;;4851618;29;20724;-59
2023/03/19 05:56:55;;;;;;;20.77;7.90;;;7.90;99.90;;;;;;4855088;29;20287;-59
2023/03/19 05:59:24;;;;;;;18.03;8.00;;;7.90;99.90;;;;;;4852018;29;20227;-59
2023/03/19 06:01:53;;;;;;;21.13;7.07;;;7.90;99.90;;;;;;4832913;29;20314;-59
2023/03/19 06:04:21;;;;;;;19.83;6.90;;;8.00;99.90;;;;;;4852699;29;20357;-59
2023/03/19 06:06:49;;;;;;;13.80;6.70;;;8.00;99.90;;;;;;4853102;29;20339;-59
2023/03/19 06:09:19;;;;;;;12.90;7.00;;;8.10;99.90;;;;;;4850637;29;20243;-59
2023/03/19 06:11:47;;;;;;;12.80;6.40;;;8.10;99.90;;;;;;4849906;29;20231;-59
2023/03/19 06:14:15;;;;;;;12.60;6.23;;;8.20;99.90;;;;;;4848894;29;20223;-59
2023/03/19 06:16:44;;;;;;;15.97;6.57;;;8.20;99.90;;;;;;4853547;29;20365;-59
2023/03/19 06:19:13;;;;;;;16.13;6.03;;;8.20;99.90;;;;;;4852409;29;20208;-59
2023/03/19 06:21:41;;;;;;;10.70;6.03;;;8.20;99.90;;;;;;4852447;29;20243;-59
2023/03/19 06:24:09;;;;;;;16.53;6.20;;;8.30;99.90;;;;;;4853355;29;20246;-59
2023/03/19 06:26:39;;;;;;;13.07;6.23;;;8.30;99.90;;;;;;4855341;29;20252;-59
2023/03/19 06:29:08;;;;;;;17.53;5.87;;;8.40;99.90;;;;;;4853017;29;20223;-59
2023/03/19 06:31:38;;;;;;;15.33;6.00;;;8.50;99.90;;;;;;4854683;29;20236;-58
2023/03/19 06:34:06;;;;;;;17.73;6.63;;;8.50;99.90;;;;;;4847206;29;20204;-59
2023/03/19 06:36:34;;;;;;;19.63;5.87;;;8.60;99.90;;;;;;4850853;29;20319;-59
2023/03/19 06:39:03;;;;;;;20.93;6.73;;;8.60;99.90;;;;;;4854113;29;20824;-59
2023/03/19 06:41:31;;;;;;;13.70;5.40;;;8.70;99.90;;;;;;4848261;29;20219;-59
2023/03/19 06:44:01;;;;;;;18.60;6.43;;;8.80;99.90;;;;;;4855076;29;20250;-59
2023/03/19 06:46:30;;;;;;;15.20;6.23;;;8.90;99.90;;;;;;4851054;29;20264;-58
2023/03/19 06:48:58;;;;;;;13.67;5.17;;;8.90;99.90;;;;;;4852308;29;20235;-60
2023/03/19 06:51:27;;;;;;;12.97;5.93;;;8.90;99.90;;;;;;4853973;29;20231;-60
2023/03/19 06:53:55;;;;;;;14.83;6.50;;;8.90;99.90;;;;;;4856683;29;20227;-59
2023/03/19 06:56:23;;;;;;;13.67;5.60;;;8.90;99.90;;;;;;4854307;29;20628;-59
2023/03/19 06:58:52;;;;;;;15.93;5.97;;;9.00;99.90;;;;;;4855888;29;20687;-59
2023/03/19 07:01:21;;;;;;;11.40;5.70;;;9.10;99.90;;;;;;4857514;29;20199;-59
2023/03/19 07:03:50;;;;;;;13.47;5.43;;;9.20;99.90;;;;;;4853318;29;20220;-59
2023/03/19 07:06:18;;;;;;;15.37;6.20;;;9.30;99.90;;;;;;4852638;29;20238;-60
2023/03/19 07:08:46;;;;;;;13.93;6.00;;;9.30;99.90;;;;;;4853941;29;20223;-59
2023/03/19 07:11:15;;;;;;;16.17;6.00;;;9.40;99.90;;;;;;4851988;29;20846;-59
2023/03/19 07:13:43;;;;;;;11.63;5.53;;;9.40;99.90;;;;;;4854743;29;20207;-59
2023/03/19 07:16:12;;;;;;;13.33;6.37;;;9.50;99.90;;;;;;4856700;29;20774;-60
2023/03/19 07:18:41;;;;;;;24.43;6.77;;;9.50;99.90;;;;;;4856002;29;20235;-59
2023/03/19 07:21:10;;;;;;;15.03;5.87;;;9.50;99.90;;;;;;4854010;29;20255;-59
2023/03/19 07:23:39;;;;;;;15.00;6.27;;;9.60;99.90;;;;;;4853591;29;20395;-59
2023/03/19 07:26:07;;;;;;;21.80;6.20;;;9.70;99.90;;;;;;4851406;29;20227;-59
2023/03/19 07:28:35;;;;;;;15.10;6.43;;;9.80;99.90;;;;;;4854913;29;20212;-59
2023/03/19 07:31:03;;;;;;;11.13;5.50;;;10.00;99.90;;;;;;4854914;29;20650;-59
2023/03/19 07:33:31;;;;;;;16.43;6.50;;;10.30;99.90;;;;;;4852687;29;20590;-59
2023/03/19 07:36:01;;;;;;;13.43;5.77;;;10.80;99.90;;;;;;4855007;29;20223;-59
2023/03/19 07:38:29;;;;;;;10.70;5.60;;;11.20;99.90;;;;;;4854047;29;20345;-59
2023/03/19 07:40:57;;;;;;;10.73;5.17;;;11.70;99.90;;;;;;4852815;29;20227;-60
2023/03/19 07:43:31;;;;;;;10.03;5.13;;;12.10;99.90;;;;;;4855185;29;20207;-57
2023/03/19 07:46:00;;;;;;;11.83;5.23;;;12.50;99.90;;;;;;4835054;29;20199;-60
2023/03/19 07:48:28;;;;;;;13.10;5.13;;;12.80;99.90;;;;;;4853099;29;20235;-59
2023/03/19 07:50:57;;;;;;;6.77;4.97;;;13.20;99.90;;;;;;4855773;29;20322;-60
2023/03/19 07:53:27;;;;;;;14.43;5.37;;;13.40;99.90;;;;;;4850821;29;20307;-60
2023/03/19 07:55:55;;;;;;;13.27;4.57;;;13.70;99.90;;;;;;4853837;29;20259;-59
2023/03/19 07:58:25;;;;;;;17.50;5.40;;;14.10;99.90;;;;;;4855394;29;20644;-60
2023/03/19 08:00:53;;;;;;;14.73;4.53;;;14.40;99.90;;;;;;4848894;29;20261;-60
2023/03/19 08:03:22;;;;;;;8.90;4.37;;;15.10;99.90;;;;;;4844211;29;20233;-60
2023/03/19 08:05:51;;;;;;;11.07;5.03;;;15.60;99.90;;;;;;4854187;29;20258;-60
2023/03/19 08:08:19;;;;;;;9.37;4.40;;;15.90;99.90;;;;;;4852617;29;20326;-60
2023/03/19 08:10:49;;;;;;;7.43;4.23;;;16.30;99.90;;;;;;4848970;29;20293;-60
2023/03/19 08:13:17;;;;;;;10.60;4.57;;;16.50;99.90;;;;;;4852575;29;20202;-60
2023/03/19 08:15:46;;;;;;;12.33;4.50;;;16.50;99.90;;;;;;4851171;29;20257;-60
2023/03/19 08:18:14;;;;;;;10.83;4.33;;;16.50;99.90;;;;;;4853590;29;20706;-60
2023/03/19 08:20:44;;;;;;;6.63;4.30;;;16.90;99.90;;;;;;4856762;29;20747;-60
2023/03/19 08:23:12;;;;;;;10.03;4.30;;;17.00;99.90;;;;;;4857008;29;20264;-60
2023/03/19 08:25:40;;;;;;;8.67;3.73;;;16.70;99.90;;;;;;4854855;29;20595;-60
2023/03/19 08:28:10;;;;;;;9.60;4.00;;;16.60;99.90;;;;;;4848130;29;20229;-60
2023/03/19 08:30:39;;;;;;;7.70;3.87;;;16.60;99.90;;;;;;4852103;29;20231;-60
2023/03/19 08:33:07;;;;;;;6.53;3.70;;;16.40;99.90;;;;;;4851929;29;20337;-60
2023/03/19 08:35:36;;;;;;;6.33;3.50;;;16.00;99.90;;;;;;4856201;29;20233;-60
2023/03/19 08:38:04;;;;;;;8.90;3.63;;;15.30;99.90;;;;;;4850932;29;20701;-59
2023/03/19 08:40:32;;;;;;;8.20;4.03;;;14.80;99.90;;;;;;4850382;29;20191;-59
2023/03/19 08:43:02;;;;;;;8.33;4.17;;;14.40;99.90;;;;;;4854221;29;20253;-60
2023/03/19 08:45:31;;;;;;;7.93;3.77;;;14.00;99.90;;;;;;4849418;29;20727;-60
2023/03/19 08:47:59;;;;;;;7.83;4.33;;;13.80;99.90;;;;;;4847813;29;20306;-60
2023/03/19 08:50:28;;;;;;;11.90;4.50;;;13.70;99.90;;;;;;4837475;29;20953;-60
2023/03/19 08:52:56;;;;;;;10.27;4.40;;;13.60;99.90;;;;;;4850626;29;20231;-60
2023/03/19 08:55:25;;;;;;;6.03;4.00;;;13.60;99.90;;;;;;4852211;29;20214;-56
2023/03/19 08:57:53;;;;;;;10.13;4.07;;;13.60;99.90;;;;;;4856493;29;20291;-60
2023/03/19 09:00:22;;;;;;;10.70;4.70;;;13.70;99.90;;;;;;4844287;29;20280;-60
2023/03/19 09:02:51;;;;;;;10.17;4.23;;;13.60;99.90;;;;;;4844800;29;20239;-60
2023/03/19 09:05:21;;;;;;;11.03;4.30;;;13.50;99.90;;;;;;4851673;29;20231;-60
2023/03/19 09:07:51;;;;;;;14.13;5.57;;;13.40;99.90;;;;;;4842802;29;20249;-60
2023/03/19 09:10:20;;;;;;;13.17;4.63;;;13.30;99.90;;;;;;4849897;29;20220;-60
2023/03/19 09:12:48;;;;;;;12.13;5.10;;;13.00;99.90;;;;;;4844002;29;20223;-60
2023/03/19 09:15:16;;;;;;;13.03;5.20;;;12.90;99.90;;;;;;4846382;29;20349;-60
2023/03/19 09:17:45;;;;;;;13.20;5.40;;;12.90;99.90;;;;;;4844027;29;20228;-60
2023/03/19 09:20:15;;;;;;;14.53;6.77;;;12.90;99.90;;;;;;4848465;29;20772;-60
2023/03/19 09:22:43;;;;;;;8.57;5.50;;;12.90;99.90;;;;;;4847069;29;20231;-60
2023/03/19 09:25:12;;;;;;;9.50;6.07;;;12.90;99.90;;;;;;4848474;29;20237;-60
2023/03/19 09:27:40;;;;;;;13.40;5.90;;;12.80;99.90;;;;;;4848389;29;20287;-60
2023/03/19 09:30:10;;;;;;;10.23;6.30;;;12.70;99.90;;;;;;4848094;29;20662;-60
2023/03/19 09:32:38;;;;;;;8.13;5.73;;;12.60;99.90;;;;;;4847409;29;20778;-60
2023/03/19 09:35:07;;;;;;;11.87;6.67;;;12.50;99.90;;;;;;4848358;29;20330;-60
2023/03/19 09:37:37;;;;;;;7.57;6.00;;;12.50;99.90;;;;;;4846356;29;20596;-59
2023/03/19 09:40:06;;;;;;;11.60;7.93;;;12.40;99.90;;;;;;4845894;29;20229;-60
2023/03/19 09:42:55;;;;;;;10.60;7.90;;;12.30;99.90;;;;;;4846817;29;20235;-59
2023/03/19 09:45:24;;;;;;;17.20;8.23;;;12.20;99.90;;;;;;4849485;29;20234;-60
2023/03/19 09:47:57;;;;;;;14.30;8.90;;;12.20;99.90;;;;;;4847922;29;20274;-60
2023/03/19 09:50:27;;;;;;;14.20;9.07;;;12.10;99.90;;;;;;4843904;29;20223;-60
2023/03/19 09:53:05;;;;;;;14.73;10.10;;;12.00;99.90;;;;;;4847890;29;20235;-59
2023/03/19 09:55:41;;;;;;;16.07;10.03;;;11.90;99.90;;;;;;4848782;29;20191;-59
2023/03/19 09:58:15;;;;;;;14.97;10.77;;;11.80;99.90;;;;;;4848006;29;20781;-60
2023/03/19 10:00:47;;;;;;;13.73;10.37;;;11.80;99.90;;;;;;4843567;29;20798;-60
2023/03/19 10:03:34;;;;;;;15.70;10.23;;;11.80;99.90;;;;;;4844286;29;20263;-59
2023/03/19 10:06:17;;;;;;;21.57;12.97;;;11.70;99.90;;;;;;4849348;29;20234;-59
2023/03/19 10:09:04;;;;;;;23.93;13.83;;;11.70;99.90;;;;;;4839044;29;20223;-60
2023/03/19 10:11:44;;;;;;;24.80;13.03;;;11.70;99.90;;;;;;4847167;29;20324;-60
2023/03/19 10:14:28;;;;;;;25.13;13.03;;;11.60;99.90;;;;;;4848003;29;20223;-60
2023/03/19 10:16:59;;;;;;;24.73;13.40;;;11.60;99.90;;;;;;4847155;29;20255;-61
2023/03/19 10:19:37;;;;;;;25.57;13.33;;;11.60;99.90;;;;;;4847787;29;20280;-59
2023/03/19 10:22:14;;;;;;;25.67;13.10;;;11.40;99.90;;;;;;4847489;29;20254;-60
2023/03/19 10:24:46;;;;;;;26.13;13.13;;;11.40;99.90;;;;;;4849769;29;20596;-59
2023/03/19 10:27:16;;;;;;;23.93;12.73;;;11.40;99.90;;;;;;4852942;29;20224;-59
2023/03/19 10:29:45;;;;;;;24.27;12.67;;;11.40;99.90;;;;;;4851480;29;20634;-59
2023/03/19 10:32:18;;;;;;;26.30;12.93;;;11.30;99.90;;;;;;4849691;29;20314;-59
2023/03/19 10:34:49;;;;;;;18.00;12.17;;;11.40;99.90;;;;;;4846792;29;20710;-60
2023/03/19 10:37:20;;;;;;;23.87;12.47;;;11.40;99.90;;;;;;4832266;29;20199;-59
2023/03/19 10:39:55;;;;;;;16.13;11.10;;;11.40;99.90;;;;;;4854769;29;20226;-59
2023/03/19 10:42:38;;;;;;;17.93;10.57;;;11.50;99.90;;;;;;4852687;29;20831;-59
2023/03/19 10:45:21;;;;;;;17.77;9.80;;;11.70;99.90;;;;;;4848592;29;20228;-59
2023/03/19 10:47:49;;;;;;;12.50;9.03;;;11.90;99.90;;;;;;4851715;29;20322;-59
2023/03/19 10:50:22;;;;;;;15.67;9.60;;;12.20;99.90;;;;;;4859389;29;20243;-59
2023/03/19 10:52:51;;;;;;;12.90;9.23;;;12.50;99.90;;;;;;4853631;29;20247;-59
2023/03/19 10:55:25;;;;;;;11.63;8.47;;;12.80;99.90;;;;;;4854737;29;20196;-59
2023/03/19 10:58:02;;;;;;;12.23;8.50;;;13.30;99.90;;;;;;4853237;29;20223;-60
2023/03/19 11:00:34;;;;;;;12.37;8.27;;;13.50;99.90;;;;;;4847719;29;20235;-60
2023/03/19 11:03:04;;;;;;;10.20;7.37;;;13.60;99.90;;;;;;4842123;29;20867;-60
2023/03/19 11:05:34;;;;;;;9.63;7.53;;;13.70;99.90;;;;;;4849981;29;20227;-60
2023/03/19 11:08:05;;;;;;;10.53;7.20;;;13.80;99.90;;;;;;4851980;29;20224;-60
2023/03/19 11:10:36;;;;;;;9.57;7.07;;;13.80;99.90;;;;;;4848627;29;20268;-59
2023/03/19 11:13:07;;;;;;;7.47;6.53;;;14.40;99.90;;;;;;4853582;29;20277;-60
2023/03/19 11:15:37;;;;;;;9.00;6.27;;;15.40;99.90;;;;;;4855402;29;20218;-60
2023/03/19 11:18:18;;;;;;;8.07;6.63;;;15.60;99.90;;;;;;4848190;29;20234;-60
2023/03/19 11:20:53;;;;;;;11.60;7.23;;;15.50;99.90;;;;;;4850965;29;20231;-60
2023/03/19 11:23:22;;;;;;;7.93;6.50;;;15.10;99.90;;;;;;4851446;29;20234;-60
2023/03/19 11:25:54;;;;;;;9.50;6.33;;;14.80;99.90;;;;;;4853642;29;20238;-59
2023/03/19 11:28:25;;;;;;;8.60;6.67;;;14.80;99.90;;;;;;4850633;29;20198;-60
2023/03/19 11:31:02;;;;;;;7.90;6.70;;;14.80;99.90;;;;;;4855183;29;20220;-60
2023/03/19 11:33:47;;;;;;;7.97;6.90;;;14.60;99.90;;;;;;4852111;29;20803;-59
2023/03/19 11:36:21;;;;;;;12.33;7.33;;;14.40;99.90;;;;;;4846897;29;20232;-59
2023/03/19 11:39:02;;;;;;;10.33;7.07;;;14.20;99.90;;;;;;4847735;29;20240;-60
2023/03/19 11:41:45;;;;;;;6.43;5.83;;;14.10;99.90;;;;;;4851636;29;20227;-60
2023/03/19 11:44:19;;;;;;;6.63;5.93;;;14.10;99.90;;;;;;4850083;29;20224;-59
2023/03/19 11:46:57;;;;;;;6.97;5.83;;;13.90;99.90;;;;;;4849168;29;20368;-59
2023/03/19 11:49:52;;;;;;;8.40;6.23;;;13.80;99.90;;;;;;4853001;29;20551;-58
2023/03/19 11:52:27;;;;;;;10.33;7.30;;;13.60;99.90;;;;;;4850749;29;20235;-59
2023/03/19 11:55:11;;;;;;;9.23;7.43;;;13.50;99.90;;;;;;4856499;29;20215;-59
2023/03/19 11:58:00;;;;;;;12.37;8.10;;;13.40;99.90;;;;;;4857000;29;20258;-59
2023/03/19 12:00:34;;;;;;;9.27;7.20;;;13.30;99.90;;;;;;4855564;29;20254;-59
2023/03/19 12:03:29;;;;;;;10.47;6.97;;;13.30;99.90;;;;;;4850821;29;20242;-59
2023/03/19 12:06:00;;;;;;;10.30;6.87;;;13.30;99.90;;;;;;4850052;29;20308;-59
2023/03/19 12:08:37;;;;;;;7.70;6.53;;;13.30;99.90;;;;;;4851454;29;20333;-59
2023/03/19 12:11:17;;;;;;;7.73;6.30;;;13.30;99.90;;;;;;4848585;29;20310;-60
2023/03/19 12:14:02;;;;;;;6.97;6.27;;;13.30;99.90;;;;;;4851228;29;20231;-60
2023/03/19 12:16:46;;;;;;;11.27;7.57;;;13.30;99.90;;;;;;4851628;29;20236;-59
2023/03/19 12:19:41;;;;;;;10.00;7.43;;;13.30;99.90;;;;;;4849884;29;20223;-60
2023/03/19 12:22:14;;;;;;;17.50;8.97;;;13.40;99.90;;;;;;4852839;29;20953;-60
2023/03/19 12:25:00;;;;;;;13.50;8.03;;;13.50;99.90;;;;;;4853213;29;20268;-60
2023/03/19 12:27:34;;;;;;;18.40;8.80;;;13.60;99.90;;;;;;4851441;29;20414;-60
2023/03/19 12:30:18;;;;;;;17.63;8.00;;;13.80;99.90;;;;;;4851901;29;20239;-60
2023/03/19 12:33:00;;;;;;;8.40;7.30;;;14.00;99.90;;;;;;4849510;29;20314;-60
2023/03/19 12:35:34;;;;;;;12.57;8.00;;;14.10;99.90;;;;;;4844970;29;20224;-60
2023/03/19 12:38:09;;;;;;;12.13;7.33;;;14.30;99.90;;;;;;4844348;29;20254;-60
2023/03/19 12:40:41;;;;;;;11.30;7.30;;;14.30;99.90;;;;;;4842272;29;20287;-59
2023/03/19 12:43:17;;;;;;;14.17;8.13;;;14.10;99.90;;;;;;4847428;29;20228;-60
2023/03/19 12:45:50;;;;;;;9.90;6.60;;;14.10;99.90;;;;;;4849253;29;20223;-60
2023/03/19 12:48:24;;;;;;;11.00;7.50;;;14.10;99.90;;;;;;4849373;29;20256;-60
2023/03/19 12:50:57;;;;;;;6.60;5.90;;;14.30;99.90;;;;;;4853363;29;20231;-60
2023/03/19 12:53:34;;;;;;;8.97;6.17;;;14.60;99.90;;;;;;4849378;29;20228;-60
2023/03/19 12:56:08;;;;;;;8.87;5.67;;;14.80;99.90;;;;;;4853201;29;20921;-60
2023/03/19 12:58:46;;;;;;;6.70;5.47;;;14.80;99.90;;;;;;4853553;29;22118;-59
2023/03/19 13:01:23;;;;;;;6.77;5.50;;;14.80;99.90;;;;;;4852355;29;20624;-60